Time;durP1;ratioP1;P1;durP2;ratioP2;P2;SDS_P1;SDS_P2;PMS_P1;PMS_P2;Temp;Humidity;BMP_temperature;BMP_pressure;BME280_temperature;BME280_humidity;BME280_pressure;Samples;Min_cycle;Max_cycle;Signal;HPM_P1;HPM_P2
2022/06/02 00:02:18;;;;;;;10.30;7.70;;;9.70;99.90;;;;;;5049811;28;20025;-74
2022/06/02 00:05:00;;;;;;;12.75;9.20;;;9.80;99.90;;;;;;5031867;28;20040;-74
2022/06/02 00:07:43;;;;;;;8.43;7.25;;;9.70;99.90;;;;;;5049471;28;20119;-73
2022/06/02 00:10:27;;;;;;;9.10;7.35;;;9.70;99.90;;;;;;5031754;28;20047;-73
2022/06/02 00:12:59;;;;;;;10.63;7.75;;;9.70;99.90;;;;;;5049611;28;20064;-74
2022/06/02 00:15:31;;;;;;;10.85;7.32;;;9.70;99.90;;;;;;5049614;28;20065;-74
2022/06/02 00:18:06;;;;;;;11.07;7.20;;;9.70;99.90;;;;;;5049364;28;20029;-75
2022/06/02 00:20:37;;;;;;;6.93;6.15;;;9.60;99.90;;;;;;5049308;28;20047;-75
2022/06/02 00:23:36;;;;;;;9.02;6.35;;;9.60;99.90;;;;;;5049388;28;20174;-74
2022/06/02 00:26:13;;;;;;;8.07;5.65;;;9.50;99.90;;;;;;5067503;28;20087;-75
2022/06/02 00:29:17;;;;;;;8.82;6.20;;;9.40;99.90;;;;;;5069111;28;20032;-73
2022/06/02 00:32:01;;;;;;;10.15;6.88;;;9.30;99.90;;;;;;5042652;28;20449;-74
2022/06/02 00:34:47;;;;;;;9.52;7.65;;;9.30;99.90;;;;;;5049358;28;20044;-73
2022/06/02 00:37:20;;;;;;;8.77;6.68;;;9.20;99.90;;;;;;5047589;28;20049;-74
2022/06/02 00:39:47;;;;;;;8.98;7.38;;;9.10;99.90;;;;;;5049101;28;20040;-73
2022/06/02 00:42:50;;;;;;;10.13;6.70;;;9.10;99.90;;;;;;5049118;28;20079;-74
2022/06/02 00:45:19;;;;;;;9.68;6.97;;;9.00;99.90;;;;;;5047479;28;20083;-74
2022/06/02 00:48:18;;;;;;;8.65;7.32;;;8.90;99.90;;;;;;5047386;28;20033;-75
2022/06/02 00:51:06;;;;;;;7.43;6.57;;;8.80;99.90;;;;;;5048984;28;20128;-74
2022/06/02 00:53:32;;;;;;;9.57;8.10;;;8.70;99.90;;;;;;5048875;28;20415;-75
2022/06/02 00:59:00;;;;;;;9.82;7.30;;;8.60;99.90;;;;;;5048838;28;20040;-74
2022/06/02 01:01:32;;;;;;;13.32;10.40;;;8.50;99.90;;;;;;5051218;28;20033;-74
2022/06/02 01:04:01;;;;;;;11.05;9.32;;;8.50;99.90;;;;;;5030597;28;20441;-74
2022/06/02 01:06:42;;;;;;;13.07;10.13;;;8.50;99.90;;;;;;5048486;28;20098;-73
2022/06/02 01:09:35;;;;;;;14.35;11.50;;;8.50;99.90;;;;;;5048891;28;20116;-73
2022/06/02 01:12:35;;;;;;;13.68;9.70;;;8.60;99.90;;;;;;5048440;28;20029;-73
2022/06/02 01:15:20;;;;;;;14.80;10.48;;;8.60;99.90;;;;;;5048253;28;20074;-73
2022/06/02 01:18:11;;;;;;;12.82;10.75;;;8.70;99.90;;;;;;5048207;28;20550;-74
2022/06/02 01:21:21;;;;;;;11.43;8.40;;;8.80;99.90;;;;;;4969976;28;20040;-73
2022/06/02 01:24:07;;;;;;;11.95;9.27;;;8.70;99.90;;;;;;4986415;28;20038;-74
2022/06/02 01:26:54;;;;;;;10.38;8.32;;;8.70;99.90;;;;;;4986252;28;20054;-73
2022/06/02 01:29:32;;;;;;;11.68;8.65;;;8.80;99.90;;;;;;4986508;28;20042;-73
2022/06/02 01:32:03;;;;;;;11.00;8.27;;;8.70;99.90;;;;;;4986843;28;20113;-73
2022/06/02 01:34:41;;;;;;;8.18;7.25;;;8.50;99.90;;;;;;4986225;28;20041;-73
2022/06/02 01:37:12;;;;;;;9.23;6.78;;;8.50;99.90;;;;;;4986190;28;20034;-73
2022/06/02 01:40:01;;;;;;;9.60;7.68;;;8.40;99.90;;;;;;4986127;28;20038;-73
2022/06/02 01:42:45;;;;;;;10.73;7.05;;;8.30;99.90;;;;;;4986307;28;20428;-74
2022/06/02 01:45:10;;;;;;;6.78;5.28;;;8.20;99.90;;;;;;4986286;28;20567;-75
2022/06/02 01:47:42;;;;;;;10.60;6.32;;;8.00;99.90;;;;;;4986180;28;20023;-75
2022/06/02 01:50:13;;;;;;;11.38;5.82;;;7.90;99.90;;;;;;4969904;28;20042;-74
2022/06/02 01:52:54;;;;;;;25.73;7.68;;;7.70;99.90;;;;;;4985966;28;20038;-73
2022/06/02 01:55:50;;;;;;;9.07;6.50;;;7.60;99.90;;;;;;4985935;28;20060;-74
2022/06/02 01:58:22;;;;;;;6.80;5.47;;;7.40;99.90;;;;;;5032249;28;20116;-73
2022/06/02 02:00:58;;;;;;;7.82;6.28;;;7.40;99.90;;;;;;5048031;28;20041;-74
2022/06/02 02:04:19;;;;;;;8.07;6.70;;;7.30;99.90;;;;;;5048119;28;20083;-74
2022/06/02 02:07:01;;;;;;;8.68;6.78;;;7.30;99.90;;;;;;4947323;28;20042;-73
2022/06/02 02:09:57;;;;;;;8.07;6.35;;;7.30;99.90;;;;;;4969411;28;20149;-72
2022/06/02 02:13:00;;;;;;;7.80;6.45;;;7.20;99.90;;;;;;4985904;28;20555;-74
2022/06/02 02:15:44;;;;;;;7.07;5.22;;;7.20;99.90;;;;;;4982108;28;20130;-72
2022/06/02 02:18:16;;;;;;;5.63;4.75;;;7.20;99.90;;;;;;4986047;28;20042;-72
2022/06/02 02:21:00;;;;;;;7.22;5.47;;;7.20;99.90;;;;;;4969350;28;20035;-73
2022/06/02 02:23:37;;;;;;;5.95;5.10;;;7.10;99.90;;;;;;4985989;28;20042;-73
2022/06/02 02:26:12;;;;;;;5.88;4.85;;;7.10;99.90;;;;;;4986008;28;20038;-73
2022/06/02 02:29:04;;;;;;;7.25;5.68;;;7.10;99.90;;;;;;4985831;28;20519;-73
2022/06/02 02:32:05;;;;;;;8.57;5.88;;;7.00;99.90;;;;;;4988584;28;20448;-73
2022/06/02 02:34:54;;;;;;;7.72;6.07;;;7.10;99.90;;;;;;4967304;28;20061;-73
2022/06/02 02:37:39;;;;;;;11.00;8.10;;;7.10;99.90;;;;;;4969670;28;20051;-74
2022/06/02 02:40:34;;;;;;;10.23;7.70;;;7.10;99.90;;;;;;4953250;28;20042;-73
2022/06/02 02:43:24;;;;;;;10.68;7.82;;;7.10;99.90;;;;;;4975989;28;20038;-75
2022/06/02 02:46:02;;;;;;;14.60;8.63;;;7.10;99.90;;;;;;4989344;28;20125;-73
2022/06/02 02:48:45;;;;;;;11.00;7.22;;;7.10;99.90;;;;;;4989112;28;20829;-74
2022/06/02 02:51:33;;;;;;;11.75;7.85;;;7.20;99.90;;;;;;4981429;28;20145;-73
2022/06/02 02:54:28;;;;;;;12.07;8.25;;;7.10;99.90;;;;;;4986377;28;20691;-74
2022/06/02 02:57:04;;;;;;;10.88;7.60;;;7.10;99.90;;;;;;4991367;28;20132;-73
2022/06/02 02:59:30;;;;;;;9.55;6.80;;;7.10;99.90;;;;;;4988876;28;20062;-73
2022/06/02 03:02:12;;;;;;;9.40;7.18;;;7.00;99.90;;;;;;4972615;28;20073;-74
2022/06/02 03:05:10;;;;;;;11.15;8.82;;;7.00;99.90;;;;;;4988842;28;20049;-73
2022/06/02 03:07:35;;;;;;;9.57;7.38;;;7.10;99.90;;;;;;4984783;28;20042;-75
2022/06/02 03:10:04;;;;;;;9.68;7.85;;;7.10;99.90;;;;;;4988764;28;20031;-74
2022/06/02 03:12:34;;;;;;;9.48;7.43;;;7.20;99.90;;;;;;5048218;28;20131;-75
2022/06/02 03:15:09;;;;;;;8.52;6.95;;;7.20;99.90;;;;;;5032740;28;20499;-73
2022/06/02 03:17:44;;;;;;;7.32;5.93;;;7.30;99.90;;;;;;5050438;28;20460;-75
2022/06/02 03:20:54;;;;;;;7.85;6.72;;;7.30;99.90;;;;;;5050810;28;20043;-73
2022/06/02 03:23:37;;;;;;;10.07;7.35;;;7.40;99.90;;;;;;4988440;28;20480;-73
2022/06/02 03:26:38;;;;;;;10.25;7.95;;;7.50;99.90;;;;;;4988356;28;20042;-74
2022/06/02 03:29:03;;;;;;;12.18;7.90;;;7.50;99.90;;;;;;4988422;28;20157;-73
2022/06/02 03:32:12;;;;;;;7.88;6.88;;;7.50;99.90;;;;;;4988374;28;20078;-74
2022/06/02 03:34:46;;;;;;;8.15;6.97;;;7.50;99.90;;;;;;4968361;28;20122;-73
2022/06/02 03:37:40;;;;;;;9.35;7.55;;;7.50;99.90;;;;;;4987962;28;20532;-73
2022/06/02 03:40:26;;;;;;;9.65;7.82;;;7.50;99.90;;;;;;4988070;28;20030;-73
2022/06/02 03:43:10;;;;;;;10.70;8.35;;;7.50;99.90;;;;;;4988129;28;20391;-73
2022/06/02 03:45:39;;;;;;;12.45;8.93;;;7.50;99.90;;;;;;4988182;28;20049;-73
2022/06/02 03:48:19;;;;;;;10.13;8.32;;;7.50;99.90;;;;;;4987858;28;20046;-73
2022/06/02 03:51:06;;;;;;;13.48;8.25;;;7.60;99.90;;;;;;4987856;28;20112;-73
2022/06/02 03:53:47;;;;;;;10.98;8.93;;;7.60;99.90;;;;;;4988035;28;20049;-73
2022/06/02 03:56:44;;;;;;;11.55;9.15;;;7.60;99.90;;;;;;4992881;28;20042;-72
2022/06/02 03:59:28;;;;;;;10.50;8.13;;;7.50;99.90;;;;;;5049968;28;20039;-73
2022/06/02 04:02:12;;;;;;;11.35;8.55;;;7.40;99.90;;;;;;5050170;28;20025;-73
2022/06/02 04:05:19;;;;;;;12.10;7.80;;;7.30;99.90;;;;;;5049944;28;20041;-73
2022/06/02 04:07:52;;;;;;;11.60;8.20;;;7.40;99.90;;;;;;5046474;28;20120;-72
2022/06/02 04:10:40;;;;;;;10.25;8.20;;;7.40;99.90;;;;;;5049963;28;20033;-73
2022/06/02 04:13:39;;;;;;;12.43;8.90;;;7.40;99.90;;;;;;5049666;28;20083;-73
2022/06/02 04:16:32;;;;;;;11.95;8.48;;;7.50;99.90;;;;;;5049406;28;20033;-74
2022/06/02 04:22:07;;;;;;;10.57;7.95;;;7.50;99.90;;;;;;5049405;28;20055;-73
2022/06/02 04:24:49;;;;;;;8.13;5.60;;;7.40;99.90;;;;;;5049173;28;20403;-73
2022/06/02 04:27:44;;;;;;;7.32;5.68;;;7.40;99.90;;;;;;5031485;28;20139;-74
2022/06/02 04:30:15;;;;;;;8.23;6.07;;;7.40;99.90;;;;;;5049705;28;20028;-73
2022/06/02 04:32:46;;;;;;;7.85;6.00;;;7.30;99.90;;;;;;5049366;28;20115;-73
2022/06/02 04:35:34;;;;;;;8.05;6.15;;;7.40;99.90;;;;;;5048797;28;20035;-73
2022/06/02 04:38:15;;;;;;;7.38;6.07;;;7.30;99.90;;;;;;5031285;28;20137;-75
2022/06/02 04:40:46;;;;;;;7.22;5.80;;;7.40;99.90;;;;;;5048534;28;20124;-74
2022/06/02 04:43:33;;;;;;;9.15;6.03;;;7.50;99.90;;;;;;5049018;28;20074;-73
2022/06/02 04:46:20;;;;;;;9.13;5.78;;;7.50;99.90;;;;;;5049145;28;20078;-73
2022/06/02 04:49:02;;;;;;;8.13;6.03;;;7.50;99.90;;;;;;5051393;28;20064;-74
2022/06/02 04:51:35;;;;;;;9.00;6.50;;;7.50;99.90;;;;;;5030933;28;20039;-74
2022/06/02 04:54:09;;;;;;;8.63;6.53;;;7.50;99.90;;;;;;5048086;28;20025;-74
2022/06/02 04:56:56;;;;;;;8.82;6.18;;;7.50;99.90;;;;;;5048892;28;20048;-73
2022/06/02 04:59:29;;;;;;;9.77;7.72;;;7.60;99.90;;;;;;5048762;28;20395;-73
2022/06/02 05:02:21;;;;;;;9.80;7.28;;;7.60;99.90;;;;;;5048638;28;20033;-73
2022/06/02 05:04:53;;;;;;;9.10;7.00;;;7.60;99.90;;;;;;5030764;28;20118;-75
2022/06/02 05:07:53;;;;;;;8.70;6.70;;;7.60;99.90;;;;;;5048765;28;20032;-72
2022/06/02 05:10:50;;;;;;;8.93;7.35;;;7.60;99.90;;;;;;5048860;28;20228;-74
2022/06/02 05:13:37;;;;;;;8.55;6.10;;;7.60;99.90;;;;;;5048692;28;20045;-73
2022/06/02 05:16:24;;;;;;;8.88;7.18;;;7.70;99.90;;;;;;5048537;28;20037;-74
2022/06/02 05:19:27;;;;;;;9.82;7.10;;;7.60;99.90;;;;;;5048485;28;20033;-75
2022/06/02 05:22:30;;;;;;;10.27;7.22;;;7.70;99.90;;;;;;5030726;28;20037;-74
2022/06/02 05:25:08;;;;;;;9.95;7.60;;;7.80;99.90;;;;;;5047185;28;20390;-74
2022/06/02 05:28:00;;;;;;;8.65;6.70;;;7.90;99.90;;;;;;5049187;28;20061;-74
2022/06/02 05:30:45;;;;;;;8.77;6.00;;;8.00;99.90;;;;;;5048813;28;20071;-73
2022/06/02 05:33:23;;;;;;;7.95;6.88;;;8.10;99.90;;;;;;5048510;28;20056;-73
2022/06/02 05:36:30;;;;;;;7.78;6.80;;;8.10;99.90;;;;;;5048818;28;20032;-74
2022/06/02 05:39:04;;;;;;;8.23;6.57;;;8.20;99.90;;;;;;5048538;28;20548;-73
2022/06/02 05:41:35;;;;;;;10.60;8.02;;;8.30;99.90;;;;;;5030458;28;20069;-74
2022/06/02 05:44:21;;;;;;;9.80;7.05;;;8.40;99.90;;;;;;5048578;28;20435;-73
2022/06/02 05:47:02;;;;;;;8.98;7.38;;;8.50;99.90;;;;;;5048447;28;20079;-73
2022/06/02 05:49:53;;;;;;;9.32;7.47;;;8.50;99.90;;;;;;5030839;28;20029;-72
2022/06/02 05:52:40;;;;;;;9.75;6.93;;;8.70;99.90;;;;;;5048915;28;20037;-73
2022/06/02 05:55:13;;;;;;;9.48;7.50;;;8.80;99.90;;;;;;5049293;28;20425;-75
2022/06/02 05:57:55;;;;;;;8.38;6.63;;;8.90;99.90;;;;;;5049176;28;20045;-73
2022/06/02 06:00:48;;;;;;;12.57;7.53;;;9.10;99.90;;;;;;5030989;28;20029;-75
2022/06/02 06:03:35;;;;;;;9.70;7.43;;;9.10;99.90;;;;;;5049208;28;20060;-74
2022/06/02 06:06:18;;;;;;;8.18;6.80;;;9.20;99.90;;;;;;5035138;28;20040;-74
2022/06/02 06:09:06;;;;;;;8.60;7.22;;;9.30;99.90;;;;;;5034240;28;20179;-74
2022/06/02 06:11:54;;;;;;;10.15;7.53;;;9.30;99.90;;;;;;5034237;28;20029;-73
2022/06/02 06:14:29;;;;;;;9.73;7.55;;;9.40;99.90;;;;;;5052097;28;20208;-74
2022/06/02 06:17:07;;;;;;;11.30;8.20;;;9.40;99.90;;;;;;5052186;28;20128;-73
2022/06/02 06:19:42;;;;;;;11.55;8.70;;;9.50;99.90;;;;;;5052305;28;20025;-74
2022/06/02 06:22:46;;;;;;;10.60;8.27;;;9.50;99.90;;;;;;5034081;28;20078;-74
2022/06/02 06:25:24;;;;;;;12.52;8.77;;;9.50;99.90;;;;;;5051844;28;20467;-74
2022/06/02 06:27:52;;;;;;;11.98;8.82;;;9.60;99.90;;;;;;5033975;28;20045;-75
2022/06/02 06:30:53;;;;;;;12.00;10.20;;;9.70;99.90;;;;;;5033457;28;20131;-74
2022/06/02 06:33:46;;;;;;;13.13;7.90;;;9.80;99.90;;;;;;4989458;28;20050;-75
2022/06/02 06:36:30;;;;;;;12.60;9.25;;;10.00;99.90;;;;;;4989197;28;20080;-73
2022/06/02 06:39:20;;;;;;;13.13;11.00;;;10.20;99.90;;;;;;4972965;28;20515;-73
2022/06/02 06:42:03;;;;;;;13.07;9.82;;;10.40;99.90;;;;;;4978047;28;20059;-73
2022/06/02 06:44:47;;;;;;;13.20;10.77;;;10.60;99.90;;;;;;4969516;28;20652;-73
2022/06/02 06:47:19;;;;;;;12.05;10.45;;;10.80;99.90;;;;;;4980498;28;20113;-74
2022/06/02 06:50:16;;;;;;;14.60;10.75;;;11.00;99.90;;;;;;4988967;28;20390;-74
2022/06/02 06:52:57;;;;;;;14.80;12.45;;;11.30;99.90;;;;;;4989361;28;20460;-74
2022/06/02 06:55:44;;;;;;;11.68;10.43;;;11.50;99.90;;;;;;4988904;28;20042;-74
2022/06/02 06:58:54;;;;;;;14.43;11.05;;;11.70;99.90;;;;;;4972373;28;20149;-77
2022/06/02 07:01:42;;;;;;;12.70;11.32;;;12.00;99.90;;;;;;4934149;29;20050;-72
2022/06/02 07:04:36;;;;;;;12.90;11.07;;;12.30;99.90;;;;;;4934050;29;20560;-74
2022/06/02 07:07:26;;;;;;;12.93;9.38;;;12.50;99.90;;;;;;4934114;28;20184;-74
2022/06/02 07:10:01;;;;;;;14.60;10.98;;;12.80;99.90;;;;;;4954830;28;20045;-73
2022/06/02 07:12:50;;;;;;;14.85;10.57;;;13.00;99.90;;;;;;5008303;28;20488;-74
2022/06/02 07:15:53;;;;;;;12.85;10.10;;;13.10;99.90;;;;;;5008025;28;20116;-74
2022/06/02 07:18:23;;;;;;;11.75;9.43;;;13.40;99.80;;;;;;4991860;28;20132;-74
2022/06/02 07:21:16;;;;;;;12.90;10.23;;;13.70;99.40;;;;;;4991914;28;20092;-73
2022/06/02 07:24:11;;;;;;;11.38;9.18;;;14.00;98.40;;;;;;5008180;28;20085;-74
2022/06/02 07:27:21;;;;;;;12.52;9.40;;;14.20;98.10;;;;;;5008105;28;20030;-74
2022/06/02 07:30:20;;;;;;;12.70;9.10;;;14.40;97.10;;;;;;5008203;28;20120;-73
2022/06/02 07:33:02;;;;;;;10.75;8.98;;;14.40;96.10;;;;;;4992024;28;20078;-74
2022/06/02 07:36:06;;;;;;;12.93;9.75;;;14.40;96.30;;;;;;5013170;28;20832;-73
2022/06/02 07:39:07;;;;;;;10.73;8.85;;;14.60;96.70;;;;;;5016709;28;20475;-74
2022/06/02 07:42:05;;;;;;;14.00;8.45;;;14.70;95.80;;;;;;5049901;28;20048;-73
2022/06/02 07:44:45;;;;;;;11.82;9.13;;;14.80;96.10;;;;;;5050152;28;20036;-74
2022/06/02 07:47:44;;;;;;;12.85;8.45;;;14.90;95.00;;;;;;5050321;28;20044;-74
2022/06/02 07:50:46;;;;;;;11.43;7.75;;;14.90;93.80;;;;;;5050253;28;20033;-73
2022/06/02 07:53:17;;;;;;;11.77;8.00;;;15.00;93.50;;;;;;4987942;28;20053;-75
2022/06/02 07:56:01;;;;;;;12.55;7.18;;;15.00;92.70;;;;;;4988102;28;20050;-75
2022/06/02 07:58:29;;;;;;;10.68;7.13;;;15.10;92.10;;;;;;4988082;28;20038;-76
2022/06/02 08:01:11;;;;;;;9.75;6.00;;;15.30;93.20;;;;;;4988187;28;20630;-73
2022/06/02 08:03:45;;;;;;;8.48;5.80;;;15.40;89.80;;;;;;4987781;28;20134;-74
2022/06/02 08:06:35;;;;;;;9.02;6.40;;;15.40;89.00;;;;;;4987936;28;20034;-76
2022/06/02 08:09:27;;;;;;;8.98;5.72;;;15.30;90.20;;;;;;4987822;28;20164;-74
2022/06/02 08:12:15;;;;;;;8.10;5.93;;;15.30;88.20;;;;;;4987511;28;20038;-76
2022/06/02 08:14:44;;;;;;;10.48;6.20;;;15.20;87.90;;;;;;4987523;28;20032;-74
2022/06/02 08:17:56;;;;;;;8.80;6.65;;;15.10;88.40;;;;;;4987713;28;20043;-76
2022/06/02 08:20:31;;;;;;;8.98;7.10;;;15.10;89.90;;;;;;4978481;28;20046;-74
2022/06/02 08:23:23;;;;;;;10.82;7.40;;;15.10;90.40;;;;;;4987391;28;20048;-76
2022/06/02 08:25:55;;;;;;;10.52;6.88;;;15.10;90.20;;;;;;4972022;28;20512;-76
2022/06/02 08:28:20;;;;;;;9.05;6.75;;;15.10;89.40;;;;;;5003435;28;20037;-74
2022/06/02 08:31:10;;;;;;;10.00;6.10;;;15.20;90.50;;;;;;5031497;28;20580;-75
2022/06/02 08:33:46;;;;;;;10.40;7.25;;;15.30;90.60;;;;;;5049403;28;20037;-74
2022/06/02 08:36:17;;;;;;;8.38;6.50;;;15.50;90.40;;;;;;5047945;28;20072;-75
2022/06/02 08:39:09;;;;;;;8.88;7.13;;;15.50;90.40;;;;;;5030780;28;20033;-74
2022/06/02 08:41:53;;;;;;;9.52;6.55;;;15.70;89.00;;;;;;5010862;28;20058;-73
2022/06/02 08:44:31;;;;;;;10.18;7.05;;;15.90;89.40;;;;;;5033652;28;20444;-75
2022/06/02 08:47:09;;;;;;;10.45;6.20;;;16.10;88.00;;;;;;5046074;28;20025;-75
2022/06/02 08:49:56;;;;;;;9.50;6.55;;;16.40;87.70;;;;;;5050170;28;20029;-75
2022/06/02 08:52:40;;;;;;;10.25;6.75;;;16.50;84.80;;;;;;5030842;28;20048;-74
2022/06/02 08:55:31;;;;;;;13.80;6.75;;;16.60;86.30;;;;;;5047369;28;20078;-74
2022/06/02 08:58:05;;;;;;;9.05;5.20;;;16.90;83.30;;;;;;5049011;28;20112;-74
2022/06/02 09:00:53;;;;;;;9.85;5.10;;;17.10;80.30;;;;;;5048815;28;20047;-77
2022/06/02 09:04:12;;;;;;;8.20;5.50;;;17.20;80.30;;;;;;5049182;28;20029;-76
2022/06/02 09:07:11;;;;;;;8.52;5.25;;;17.30;81.90;;;;;;5047516;28;20036;-74
2022/06/02 09:10:08;;;;;;;7.47;4.57;;;17.20;78.80;;;;;;5048504;28;20035;-74
2022/06/02 09:12:54;;;;;;;8.13;4.50;;;17.10;76.50;;;;;;4986592;28;20042;-74
2022/06/02 09:15:38;;;;;;;9.35;5.10;;;17.00;77.00;;;;;;4986560;28;20100;-75
2022/06/02 09:18:14;;;;;;;9.38;5.07;;;17.00;80.20;;;;;;4986485;28;20034;-74
2022/06/02 09:21:14;;;;;;;10.52;6.03;;;17.10;79.20;;;;;;4986499;28;20042;-73
2022/06/02 09:23:47;;;;;;;7.47;5.13;;;17.10;79.80;;;;;;4970019;28;20042;-74
2022/06/02 09:26:28;;;;;;;10.50;4.82;;;17.30;80.00;;;;;;4986633;28;20137;-75
2022/06/02 09:28:57;;;;;;;9.45;5.25;;;17.50;77.70;;;;;;4986174;28;20034;-75
2022/06/02 09:31:40;;;;;;;9.13;5.53;;;17.80;79.40;;;;;;4986144;28;20726;-74
2022/06/02 09:34:18;;;;;;;8.95;4.53;;;17.90;74.90;;;;;;4986486;28;20030;-73
2022/06/02 09:36:53;;;;;;;7.43;4.47;;;17.70;74.10;;;;;;4986318;28;20128;-76
2022/06/02 09:39:37;;;;;;;6.40;4.00;;;17.60;76.70;;;;;;4985580;28;20026;-74
2022/06/02 09:42:27;;;;;;;6.28;3.50;;;17.60;74.60;;;;;;4986106;28;20089;-75
2022/06/02 09:45:11;;;;;;;6.65;3.70;;;17.40;74.80;;;;;;4986520;28;20778;-74
2022/06/02 09:48:04;;;;;;;7.82;4.00;;;17.50;73.90;;;;;;4986649;28;20069;-74
2022/06/02 09:51:06;;;;;;;8.23;4.05;;;17.60;74.70;;;;;;5038870;28;20063;-78
2022/06/02 09:53:43;;;;;;;7.35;4.10;;;17.70;74.00;;;;;;5046604;28;20021;-76
2022/06/02 09:56:19;;;;;;;7.65;3.88;;;17.90;73.20;;;;;;5048499;28;20041;-76
2022/06/02 09:58:51;;;;;;;10.70;4.50;;;17.90;74.50;;;;;;5030246;28;20055;-74
2022/06/02 10:01:36;;;;;;;7.38;4.53;;;18.00;75.60;;;;;;5048267;28;20127;-74
2022/06/02 10:04:39;;;;;;;7.45;4.57;;;18.00;75.30;;;;;;5048084;28;20079;-75
2022/06/02 10:07:35;;;;;;;8.13;4.50;;;18.10;73.70;;;;;;5030022;28;20051;-74
2022/06/02 10:10:01;;;;;;;9.80;4.68;;;18.30;75.00;;;;;;5048368;28;20043;-73
2022/06/02 10:12:55;;;;;;;7.93;4.15;;;18.50;72.00;;;;;;5030381;28;20592;-75
2022/06/02 10:15:46;;;;;;;8.10;5.32;;;18.50;71.60;;;;;;5048266;28;20052;-74
2022/06/02 10:18:49;;;;;;;7.40;5.07;;;18.60;72.70;;;;;;5048135;28;20033;-75
2022/06/02 10:21:33;;;;;;;7.38;4.43;;;18.60;72.00;;;;;;5047746;28;20025;-78
2022/06/02 10:24:01;;;;;;;8.32;4.97;;;18.70;72.40;;;;;;5048009;28;20029;-75
2022/06/02 10:26:49;;;;;;;9.77;5.20;;;18.60;70.40;;;;;;5030069;28;20041;-74
2022/06/02 10:29:55;;;;;;;8.13;5.05;;;18.50;70.50;;;;;;5047776;28;20036;-75
2022/06/02 10:33:15;;;;;;;8.07;4.65;;;18.30;72.20;;;;;;5029925;28;20041;-74
2022/06/02 10:35:55;;;;;;;7.75;4.72;;;18.50;77.80;;;;;;5017936;28;20045;-75
2022/06/02 10:38:35;;;;;;;6.15;3.95;;;18.90;69.40;;;;;;5048479;28;20029;-75
2022/06/02 10:41:13;;;;;;;5.65;4.10;;;19.20;70.80;;;;;;5029862;28;20833;-77
2022/06/02 10:43:57;;;;;;;7.80;4.25;;;19.30;69.80;;;;;;5047440;28;20040;-75
2022/06/02 10:46:39;;;;;;;6.90;4.05;;;19.10;68.20;;;;;;5047675;28;20036;-76
2022/06/02 10:49:31;;;;;;;5.88;3.70;;;19.20;67.80;;;;;;5046354;28;20029;-73
2022/06/02 10:52:30;;;;;;;7.82;3.92;;;19.10;69.90;;;;;;5048534;28;20032;-76
2022/06/02 10:55:18;;;;;;;6.95;4.15;;;18.90;68.90;;;;;;5068088;28;20088;-75
2022/06/02 10:58:21;;;;;;;6.20;3.97;;;18.70;70.30;;;;;;5071329;28;20043;-76
2022/06/02 11:01:27;;;;;;;6.65;4.43;;;18.50;69.50;;;;;;5071352;28;20039;-74
2022/06/02 11:04:30;;;;;;;6.57;3.50;;;18.40;71.00;;;;;;5008894;28;20730;-74
2022/06/02 11:07:31;;;;;;;6.35;3.38;;;18.40;72.60;;;;;;5008810;28;20132;-75
2022/06/02 11:10:16;;;;;;;5.65;3.70;;;18.40;70.90;;;;;;5008625;28;20104;-74
2022/06/02 11:13:15;;;;;;;4.68;2.90;;;18.60;69.70;;;;;;5008374;28;20045;-74
2022/06/02 11:15:55;;;;;;;5.63;3.13;;;18.90;71.00;;;;;;5008372;28;20033;-75
2022/06/02 11:18:41;;;;;;;4.15;2.80;;;19.60;69.70;;;;;;5009070;28;20125;-75
2022/06/02 11:21:07;;;;;;;4.20;3.10;;;21.50;65.30;;;;;;5008325;28;20076;-75
2022/06/02 11:23:55;;;;;;;4.80;3.15;;;23.00;61.10;;;;;;5008482;28;20119;-76
2022/06/02 11:26:25;;;;;;;6.07;3.13;;;22.00;59.80;;;;;;5008150;28;20794;-76
2022/06/02 11:28:57;;;;;;;4.40;3.17;;;21.50;61.60;;;;;;5008234;28;20041;-75
2022/06/02 11:31:29;;;;;;;4.82;3.15;;;21.10;63.00;;;;;;4991870;28;20798;-75
2022/06/02 11:34:17;;;;;;;4.50;3.28;;;20.80;63.40;;;;;;5007968;28;20088;-74
2022/06/02 11:37:27;;;;;;;4.93;3.10;;;20.50;63.50;;;;;;5007999;28;20041;-74
2022/06/02 11:40:25;;;;;;;4.82;2.90;;;20.10;65.60;;;;;;5047188;28;20051;-74
2022/06/02 11:43:25;;;;;;;5.85;3.33;;;19.90;65.80;;;;;;5069359;28;20418;-75
2022/06/02 11:46:25;;;;;;;3.63;2.33;;;19.80;65.40;;;;;;5070795;28;20040;-74
2022/06/02 11:49:28;;;;;;;4.43;2.25;;;19.50;65.00;;;;;;5071323;28;20085;-75
2022/06/02 11:52:09;;;;;;;4.68;2.83;;;19.50;67.30;;;;;;5069059;28;20040;-75
2022/06/02 11:54:46;;;;;;;3.90;2.28;;;19.70;66.40;;;;;;5052005;28;20036;-73
2022/06/02 11:57:23;;;;;;;4.35;2.28;;;19.60;64.60;;;;;;5070390;28;20112;-74
2022/06/02 11:59:55;;;;;;;4.57;2.50;;;19.40;64.80;;;;;;5070893;28;20028;-75
2022/06/02 12:02:58;;;;;;;5.38;2.33;;;19.20;65.70;;;;;;5070635;28;20039;-74
2022/06/02 12:05:44;;;;;;;6.97;2.88;;;19.10;68.30;;;;;;5070473;28;20035;-76
2022/06/02 12:09:01;;;;;;;3.65;2.03;;;19.50;65.00;;;;;;5051886;28;20048;-75
2022/06/02 12:11:48;;;;;;;4.80;2.70;;;19.90;65.10;;;;;;5007356;28;20045;-77
2022/06/02 12:14:56;;;;;;;4.95;2.20;;;20.30;63.00;;;;;;5007161;28;20566;-75
2022/06/02 12:17:33;;;;;;;3.97;2.00;;;20.40;63.60;;;;;;5007270;28;20109;-75
2022/06/02 12:19:58;;;;;;;4.15;1.90;;;20.50;59.30;;;;;;5007275;28;20037;-72
2022/06/02 12:22:55;;;;;;;3.08;1.70;;;20.50;58.70;;;;;;5007404;28;20033;-81
2022/06/02 12:25:45;;;;;;;3.88;1.60;;;20.60;61.10;;;;;;5007171;28;20045;-74
2022/06/02 12:28:28;;;;;;;5.03;2.03;;;20.40;59.80;;;;;;5007175;28;20122;-75
2022/06/02 12:31:12;;;;;;;3.20;1.70;;;20.40;60.10;;;;;;5007671;28;20096;-75
2022/06/02 12:33:47;;;;;;;1.90;1.35;;;20.40;61.00;;;;;;4990560;28;20550;-74
2022/06/02 12:36:34;;;;;;;2.47;1.33;;;20.60;61.80;;;;;;5007674;28;20049;-77
2022/06/02 12:39:21;;;;;;;2.83;1.40;;;20.90;61.80;;;;;;4985289;28;20113;-74
2022/06/02 12:42:01;;;;;;;3.03;1.60;;;20.90;59.60;;;;;;4987077;28;20054;-75
2022/06/02 12:44:50;;;;;;;2.42;1.60;;;21.10;58.50;;;;;;4987242;28;20131;-75
2022/06/02 12:47:45;;;;;;;4.45;2.03;;;21.00;58.40;;;;;;4967792;28;20503;-75
2022/06/02 12:50:37;;;;;;;3.22;1.50;;;20.90;59.70;;;;;;4967452;28;20070;-76
2022/06/02 12:53:45;;;;;;;3.20;1.55;;;20.70;61.70;;;;;;4981872;28;20046;-75
2022/06/02 12:56:43;;;;;;;2.67;1.40;;;20.80;59.80;;;;;;4987186;28;20046;-76
2022/06/02 12:59:29;;;;;;;2.67;1.30;;;20.80;57.00;;;;;;4986920;28;20089;-73
2022/06/02 13:02:06;;;;;;;3.58;1.23;;;20.70;57.40;;;;;;4987527;28;20034;-75
2022/06/02 13:04:35;;;;;;;2.42;1.40;;;20.70;57.10;;;;;;4986810;28;20046;-77
2022/06/02 13:07:15;;;;;;;2.80;1.48;;;20.90;54.50;;;;;;4986641;28;20038;-74
2022/06/02 13:10:15;;;;;;;2.10;1.10;;;20.70;54.80;;;;;;4986820;28;20038;-75
2022/06/02 13:13:18;;;;;;;2.92;1.30;;;20.40;56.10;;;;;;4968154;28;20038;-76
2022/06/02 13:15:58;;;;;;;2.30;1.35;;;20.50;55.70;;;;;;4986260;28;20050;-73
2022/06/02 13:18:45;;;;;;;2.55;1.25;;;20.60;55.10;;;;;;4986682;28;20093;-74
2022/06/02 13:21:56;;;;;;;4.22;1.30;;;20.20;57.00;;;;;;4986579;28;20097;-75
2022/06/02 13:24:52;;;;;;;2.88;1.30;;;20.00;58.30;;;;;;5001036;28;20124;-74
2022/06/02 13:27:30;;;;;;;1.88;1.20;;;20.00;56.40;;;;;;5048789;28;20033;-74
2022/06/02 13:30:13;;;;;;;2.92;1.25;;;20.10;57.00;;;;;;5049220;28;20034;-74
2022/06/02 13:33:03;;;;;;;4.78;1.30;;;20.10;56.10;;;;;;5049118;28;20399;-73
2022/06/02 13:35:35;;;;;;;2.88;1.38;;;20.30;56.00;;;;;;5048441;28;20398;-77
2022/06/02 13:38:18;;;;;;;2.40;1.10;;;20.20;56.00;;;;;;5048345;28;20489;-76
2022/06/02 13:41:06;;;;;;;2.72;1.40;;;20.10;55.70;;;;;;5030442;28;20064;-74
2022/06/02 13:44:13;;;;;;;3.22;1.30;;;20.20;56.10;;;;;;5048592;28;20191;-73
2022/06/02 13:47:12;;;;;;;1.45;1.17;;;20.20;55.50;;;;;;5048526;28;20028;-75
2022/06/02 13:49:55;;;;;;;1.67;1.20;;;20.40;54.30;;;;;;5048422;28;20411;-75
2022/06/02 13:52:44;;;;;;;2.20;1.00;;;20.40;53.30;;;;;;5048520;28;20040;-74
2022/06/02 13:58:32;;;;;;;2.03;1.00;;;20.30;52.20;;;;;;4986215;28;20452;-76
2022/06/02 14:01:08;;;;;;;2.72;1.10;;;20.20;54.10;;;;;;4986171;28;20066;-73
2022/06/02 14:03:39;;;;;;;1.70;1.00;;;20.30;51.90;;;;;;4983132;28;20543;-75
2022/06/02 14:06:18;;;;;;;2.25;1.02;;;20.30;53.60;;;;;;4965230;28;20038;-77
2022/06/02 14:09:07;;;;;;;4.97;1.20;;;20.30;50.80;;;;;;4978902;28;20611;-74
2022/06/02 14:11:35;;;;;;;2.95;1.15;;;20.30;51.90;;;;;;4986487;28;20038;-76
2022/06/02 14:14:16;;;;;;;2.17;0.98;;;20.40;53.60;;;;;;4979699;28;20051;-75
2022/06/02 14:17:01;;;;;;;1.98;1.00;;;20.50;52.60;;;;;;4984984;28;20565;-75
2022/06/02 14:19:36;;;;;;;2.47;1.13;;;20.70;50.00;;;;;;4985135;28;20046;-75
2022/06/02 14:22:28;;;;;;;3.25;1.05;;;20.60;49.90;;;;;;4981205;28;20070;-78
2022/06/02 14:25:08;;;;;;;3.10;1.08;;;20.50;48.80;;;;;;4980413;28;20047;-75
2022/06/02 14:27:53;;;;;;;1.27;0.80;;;20.50;49.60;;;;;;4994099;28;20559;-76
2022/06/02 14:30:26;;;;;;;1.42;0.90;;;20.40;49.90;;;;;;4981909;28;20065;-78
2022/06/02 14:32:54;;;;;;;1.42;0.80;;;20.40;49.30;;;;;;5038903;28;20047;-76